Time;durP1;ratioP1;P1;durP2;ratioP2;P2;SDS_P1;SDS_P2;PMS_P1;PMS_P2;Temp;Humidity;BMP_temperature;BMP_pressure;BME280_temperature;BME280_humidity;BME280_pressure;Samples;Min_cycle;Max_cycle;Signal;HPM_P1;HPM_P2
2023/06/02 00:01:24;;;;;;;;;;;20.10;34.70;;;19.37;33.75;101241.66;12250537;19;19931;-83
2023/06/02 00:05:26;;;;;;;;;;;20.10;34.70;;;19.34;33.52;101252.53;12247299;19;19922;-82
2023/06/02 00:09:36;;;;;;;;;;;20.00;34.80;;;19.24;33.74;101239.19;12247642;19;20289;-83
2023/06/02 00:13:38;;;;;;;;;;;20.00;34.80;;;19.30;33.67;101251.09;12248030;19;19930;-82
2023/06/02 00:17:40;;;;;;;;;;;20.00;34.90;;;19.29;34.04;101256.53;12249951;19;19978;-83
2023/06/02 00:21:45;;;;;;;;;;;20.00;34.80;;;19.21;33.86;101255.34;12250559;19;20322;-82
2023/06/02 00:25:47;;;;;;;;;;;20.00;34.90;;;19.15;34.13;101263.81;12247053;19;19919;-83
2023/06/02 00:29:50;;;;;;;;;;;19.90;34.80;;;19.15;33.95;101265.63;12250031;19;20420;-83
2023/06/02 00:33:51;;;;;;;;;;;19.90;34.80;;;19.08;33.98;101269.72;12252656;19;19914;-83
2023/06/02 00:37:53;;;;;;;;;;;19.80;35.00;;;18.91;34.03;101245.50;12248556;19;19919;-82
2023/06/02 00:41:55;;;;;;;;;;;19.80;35.10;;;18.86;33.92;101252.13;12244764;19;19918;-83
2023/06/02 00:45:57;;;;;;;;;;;19.70;34.90;;;18.62;33.89;101231.13;12246097;19;20267;-83
2023/06/02 00:49:59;;;;;;;;;;;19.60;35.40;;;18.66;34.03;101251.06;12245663;19;20386;-83
2023/06/02 00:54:00;;;;;;;;;;;19.50;35.00;;;18.55;34.34;101252.78;12246190;19;20335;-84
2023/06/02 00:58:03;;;;;;;;;;;19.50;34.90;;;18.50;34.08;101249.66;12244649;19;19927;-83
2023/06/02 01:02:05;;;;;;;;;;;19.40;34.90;;;18.60;34.24;101272.72;12246681;19;19982;-83
2023/06/02 01:06:07;;;;;;;;;;;19.30;34.90;;;18.49;34.40;101258.53;12247377;19;19932;-83
2023/06/02 01:10:09;;;;;;;;;;;19.30;35.00;;;18.41;34.50;101258.31;12245906;19;19940;-83
2023/06/02 01:14:11;;;;;;;;;;;19.30;35.00;;;18.51;34.42;101271.66;12246815;19;19923;-83
2023/06/02 01:18:14;;;;;;;;;;;19.30;35.10;;;18.44;34.46;101283.69;12242219;19;19914;-82
2023/06/02 01:22:19;;;;;;;;;;;19.20;35.50;;;18.37;34.51;101270.13;12247323;19;19923;-82
2023/06/02 01:26:21;;;;;;;;;;;19.20;35.10;;;18.28;34.49;101271.69;12244938;19;19939;-82
2023/06/02 01:30:24;;;;;;;;;;;19.10;35.00;;;18.20;34.44;101270.59;12244144;19;19926;-83
2023/06/02 01:34:52;;;;;;;;;;;19.00;35.10;;;18.16;34.62;101269.16;12245905;19;19926;-83
2023/06/02 01:38:56;;;;;;;;;;;19.00;35.20;;;18.11;34.65;101273.00;12247058;19;19974;-83
2023/06/02 01:43:00;;;;;;;;;;;18.90;35.50;;;18.00;34.56;101259.78;12245468;19;19919;-82
2023/06/02 01:47:02;;;;;;;;;;;18.90;35.30;;;18.06;34.61;101283.09;12242208;19;19922;-82
2023/06/02 01:51:04;;;;;;;;;;;18.80;35.80;;;17.97;34.79;101278.53;12244235;19;20328;-83
2023/06/02 01:55:06;;;;;;;;;;;18.80;35.50;;;17.76;34.67;101264.31;12245036;19;19939;-82
2023/06/02 01:59:08;;;;;;;;;;;18.70;35.60;;;17.84;34.85;101299.75;12244232;19;19922;-82
2023/06/02 02:03:12;;;;;;;;;;;18.70;35.50;;;17.80;34.74;101294.84;12246145;19;19930;-82
2023/06/02 02:07:19;;;;;;;;;;;18.60;35.50;;;17.64;34.94;101269.56;12252103;19;19919;-83
2023/06/02 02:11:21;;;;;;;;;;;18.60;35.50;;;17.66;34.96;101287.94;12256153;19;21829;-82
2023/06/02 02:15:23;;;;;;;;;;;18.50;35.80;;;17.39;34.84;101265.31;12256433;19;20006;-82
2023/06/02 02:19:24;;;;;;;;;;;18.50;36.00;;;17.54;35.11;101310.84;12257305;19;20373;-82
2023/06/02 02:23:27;;;;;;;;;;;18.40;35.70;;;17.40;35.06;101295.19;12258634;19;19915;-83
2023/06/02 02:27:28;;;;;;;;;;;18.30;35.60;;;17.40;34.95;101309.22;12249581;19;20249;-82
2023/06/02 02:31:30;;;;;;;;;;;18.20;35.50;;;17.31;35.02;101304.66;12255353;19;19919;-83
2023/06/02 02:35:32;;;;;;;;;;;18.20;35.70;;;17.33;35.24;101315.91;12251759;19;20331;-82
2023/06/02 02:39:35;;;;;;;;;;;18.10;35.70;;;17.27;35.22;101308.47;12255200;19;19934;-82
2023/06/02 02:43:37;;;;;;;;;;;18.10;36.00;;;17.15;35.14;101297.03;12254126;19;19918;-83
2023/06/02 02:47:40;;;;;;;;;;;18.10;35.90;;;17.19;35.08;101301.09;12251492;19;19944;-82
2023/06/02 02:51:42;;;;;;;;;;;18.00;35.90;;;17.20;35.27;101305.44;12255625;19;19911;-84
2023/06/02 02:55:44;;;;;;;;;;;18.00;35.90;;;17.00;35.38;101282.31;12250649;19;19979;-82
2023/06/02 02:59:47;;;;;;;;;;;18.00;36.00;;;17.18;35.37;101330.25;12252938;19;20266;-82
2023/06/02 03:03:49;;;;;;;;;;;18.00;35.90;;;17.13;35.58;101333.22;12253905;19;19927;-83
2023/06/02 03:07:51;;;;;;;;;;;18.00;36.00;;;17.05;35.63;101327.66;12249701;19;20107;-82
2023/06/02 03:11:54;;;;;;;;;;;17.90;35.80;;;17.08;35.41;101332.72;12248645;19;19978;-82
2023/06/02 03:15:55;;;;;;;;;;;17.90;35.90;;;17.05;35.51;101340.88;12246114;19;19940;-82
2023/06/02 03:19:58;;;;;;;;;;;17.90;35.80;;;17.05;35.51;101342.66;12251117;19;19965;-82
2023/06/02 03:24:00;;;;;;;;;;;17.90;36.00;;;16.99;35.33;101339.53;12250682;19;19911;-82
2023/06/02 03:28:03;;;;;;;;;;;17.90;36.00;;;16.83;35.47;101320.47;12249471;19;19919;-82
2023/06/02 03:32:10;;;;;;;;;;;17.90;36.00;;;16.90;35.52;101339.31;12247526;19;20269;-82
2023/06/02 03:36:12;;;;;;;;;;;17.80;36.00;;;16.83;35.43;101328.38;12249738;19;19926;-82
2023/06/02 03:40:15;;;;;;;;;;;17.80;35.90;;;16.80;35.63;101344.44;12252423;19;19911;-83
2023/06/02 03:44:17;;;;;;;;;;;17.70;35.90;;;16.72;35.89;101342.31;12250841;19;19926;-83
2023/06/02 03:48:20;;;;;;;;;;;17.70;36.20;;;16.71;35.56;101353.78;12248781;19;19989;-82
2023/06/02 03:52:24;;;;;;;;;;;17.60;36.10;;;16.57;35.67;101333.69;12251151;19;19919;-83
2023/06/02 03:56:26;;;;;;;;;;;17.60;36.50;;;16.64;35.85;101349.09;12248018;19;19919;-83
2023/06/02 04:00:28;;;;;;;;;;;17.50;36.20;;;16.60;35.87;101353.72;12250451;19;20034;-83
2023/06/02 04:04:36;;;;;;;;;;;17.50;36.30;;;16.56;35.88;101357.53;12243960;19;20312;-83
2023/06/02 04:08:37;;;;;;;;;;;17.50;36.20;;;16.54;35.76;101362.91;12249544;19;19914;-84
2023/06/02 04:12:39;;;;;;;;;;;17.50;36.40;;;16.42;35.99;101347.09;12248940;19;20284;-84
2023/06/02 04:16:41;;;;;;;;;;;17.40;36.50;;;16.48;36.13;101379.16;12244903;19;19917;-83
2023/06/02 04:20:44;;;;;;;;;;;17.40;36.40;;;16.31;36.06;101342.56;12246864;19;20599;-82
2023/06/02 04:24:46;;;;;;;;;;;17.40;36.40;;;16.52;35.98;101385.06;12247023;19;19919;-83
2023/06/02 04:28:48;;;;;;;;;;;17.40;36.50;;;16.42;36.09;101360.28;12242898;19;20245;-83
2023/06/02 04:32:50;;;;;;;;;;;17.40;36.50;;;16.53;36.21;101384.97;12240224;19;19923;-83
2023/06/02 04:36:52;;;;;;;;;;;17.40;36.50;;;16.29;36.24;101350.59;12242949;19;19925;-83
2023/06/02 04:40:56;;;;;;;;;;;17.40;36.50;;;16.33;36.16;101353.84;12244991;19;19918;-83
2023/06/02 04:45:00;;;;;;;;;;;17.40;37.10;;;16.50;36.30;101381.66;12243737;19;19919;-83
2023/06/02 04:49:08;;;;;;;;;;;17.50;36.80;;;16.50;36.47;101382.53;12245741;19;19934;-82
2023/06/02 04:53:10;;;;;;;;;;;17.50;37.00;;;16.63;36.14;101390.41;12246582;19;19923;-82
2023/06/02 04:57:12;;;;;;;;;;;17.50;37.90;;;16.62;36.54;101378.19;12245088;19;19926;-83
2023/06/02 05:01:14;;;;;;;;;;;17.60;36.80;;;16.66;36.50;101399.91;12246507;19;19919;-83
2023/06/02 05:05:16;;;;;;;;;;;17.60;36.80;;;16.64;36.53;101404.47;12246513;19;20227;-82
2023/06/02 05:09:19;;;;;;;;;;;17.60;36.70;;;16.44;36.42;101367.13;12244669;19;19919;-82
2023/06/02 05:13:23;;;;;;;;;;;17.60;37.10;;;16.56;36.58;101383.91;12245215;19;20532;-83
2023/06/02 05:17:28;;;;;;;;;;;17.60;37.40;;;16.64;36.61;101397.41;12239297;19;19918;-83
2023/06/02 05:21:31;;;;;;;;;;;17.60;37.00;;;16.55;36.60;101382.19;12246528;19;19952;-82
2023/06/02 05:25:37;;;;;;;;;;;17.60;37.50;;;16.59;36.53;101389.78;12243674;19;20333;-83
2023/06/02 05:29:39;;;;;;;;;;;17.60;37.70;;;16.70;36.72;101418.06;12243677;19;19919;-83
2023/06/02 05:33:41;;;;;;;;;;;17.70;37.30;;;16.46;36.64;101370.50;12247871;19;19919;-83
2023/06/02 05:37:43;;;;;;;;;;;17.70;37.50;;;16.75;36.86;101420.38;12245383;19;19941;-83
2023/06/02 05:41:45;;;;;;;;;;;17.70;37.40;;;16.66;36.61;101411.31;12259209;19;19919;-82
2023/06/02 05:45:47;;;;;;;;;;;17.70;37.20;;;16.74;36.63;101427.47;12256009;19;19942;-82
2023/06/02 05:49:49;;;;;;;;;;;17.80;37.60;;;16.76;36.57;101430.81;12252780;19;19943;-83
2023/06/02 05:53:50;;;;;;;;;;;17.80;37.50;;;16.44;36.99;101382.09;12257517;19;19922;-82
2023/06/02 05:57:53;;;;;;;;;;;17.70;37.00;;;16.77;36.84;101445.72;12254924;19;19923;-84
2023/06/02 06:01:58;;;;;;;;;;;17.80;37.70;;;16.73;36.85;101444.22;12256987;19;20334;-83
2023/06/02 06:06:00;;;;;;;;;;;17.80;37.90;;;16.67;36.92;101443.81;12253927;19;19915;-84
2023/06/02 06:10:03;;;;;;;;;;;17.80;37.30;;;16.64;36.97;101450.13;12252461;19;20393;-82
2023/06/02 06:14:07;;;;;;;;;;;17.70;37.50;;;16.74;37.00;101451.19;12254773;19;19919;-83
2023/06/02 06:18:11;;;;;;;;;;;17.70;37.40;;;16.49;36.81;101420.38;12256980;19;19926;-82
2023/06/02 06:22:12;;;;;;;;;;;17.70;37.50;;;16.67;37.05;101444.66;12258065;19;19915;-83
2023/06/02 06:26:16;;;;;;;;;;;17.70;37.80;;;16.78;36.84;101465.03;12251943;19;20356;-82
2023/06/02 06:30:21;;;;;;;;;;;17.80;37.50;;;16.81;36.90;101468.28;12250941;19;20363;-83
2023/06/02 06:34:27;;;;;;;;;;;17.80;38.10;;;16.53;37.09;101413.97;12254261;19;19922;-83
2023/06/02 06:38:28;;;;;;;;;;;17.80;37.60;;;16.88;37.07;101465.25;12254229;19;19942;-83
2023/06/02 06:42:31;;;;;;;;;;;17.90;37.60;;;16.95;37.24;101466.50;12254253;19;20401;-82
2023/06/02 06:46:43;;;;;;;;;;;17.90;37.50;;;17.02;37.18;101465.13;12247481;19;19998;-84
2023/06/02 06:50:44;;;;;;;;;;;17.90;37.20;;;16.91;37.18;101459.75;12248794;19;20239;-83
2023/06/02 06:54:45;;;;;;;;;;;18.00;39.10;;;16.92;37.42;101456.16;12252278;19;19922;-82
2023/06/02 06:58:47;;;;;;;;;;;18.00;38.10;;;17.10;37.46;101480.41;12255812;19;19918;-82
2023/06/02 07:02:48;;;;;;;;;;;18.10;38.00;;;17.13;37.36;101491.59;12254626;19;20017;-82
2023/06/02 07:06:50;;;;;;;;;;;18.10;38.80;;;17.12;37.30;101489.03;12250938;19;19929;-81
2023/06/02 07:10:52;;;;;;;;;;;18.20;39.10;;;17.18;37.63;101504.47;12251553;19;19910;-82
2023/06/02 07:14:54;;;;;;;;;;;18.20;38.60;;;17.06;37.51;101492.13;12253143;19;20431;-82
2023/06/02 07:18:56;;;;;;;;;;;18.20;38.90;;;17.16;37.71;101503.72;12254011;19;20589;-82
2023/06/02 07:22:57;;;;;;;;;;;18.20;38.80;;;17.05;37.86;101501.00;12253108;19;19923;-83
2023/06/02 07:26:59;;;;;;;;;;;18.20;39.30;;;17.19;37.63;101525.47;12247955;19;19990;-83
2023/06/02 07:31:01;;;;;;;;;;;18.20;39.80;;;17.24;37.51;101515.41;12252284;19;19922;-83
2023/06/02 07:35:03;;;;;;;;;;;18.20;38.70;;;17.06;37.70;101485.03;12250697;19;20019;-85
2023/06/02 07:39:04;;;;;;;;;;;18.30;38.50;;;17.19;37.86;101503.50;12250823;19;19923;-85
2023/06/02 07:43:06;;;;;;;;;;;18.30;38.50;;;17.21;37.96;101497.16;12249626;19;19915;-85
2023/06/02 07:47:07;;;;;;;;;;;18.30;38.60;;;17.40;38.04;101522.25;12249112;19;19921;-84
2023/06/02 07:51:09;;;;;;;;;;;18.40;38.80;;;17.39;37.87;101512.63;12251175;19;19926;-85
2023/06/02 07:55:11;;;;;;;;;;;18.40;39.20;;;17.39;37.71;101517.91;12249468;19;19970;-84
2023/06/02 07:59:13;;;;;;;;;;;18.50;38.60;;;17.43;38.01;101507.03;12249333;19;19948;-84
2023/06/02 08:03:14;;;;;;;;;;;18.60;39.00;;;17.61;38.00;101525.19;12248433;19;20250;-84
2023/06/02 08:07:16;;;;;;;;;;;18.60;39.60;;;17.39;38.17;101496.78;12247081;19;19950;-86
2023/06/02 08:11:18;;;;;;;;;;;18.70;39.40;;;17.65;38.11;101538.03;12252495;19;19922;-85
2023/06/02 08:15:20;;;;;;;;;;;18.70;39.30;;;17.59;38.13;101525.28;12249178;19;19922;-85
2023/06/02 08:19:25;;;;;;;;;;;18.70;39.70;;;17.70;37.98;101527.13;12250821;19;19911;-85
2023/06/02 08:23:27;;;;;;;;;;;18.70;39.60;;;17.67;38.20;101530.00;12250205;19;19982;-84
2023/06/02 08:27:38;;;;;;;;;;;18.80;38.90;;;17.78;38.05;101542.44;12305636;19;19898;-82
2023/06/02 08:31:40;;;;;;;;;;;18.80;39.60;;;17.82;38.00;101542.16;12303633;19;20274;-81
2023/06/02 08:35:42;;;;;;;;;;;18.90;39.40;;;17.86;38.21;101545.41;12304895;19;19926;-81
2023/06/02 08:39:44;;;;;;;;;;;18.90;39.40;;;17.75;38.30;101527.66;12308698;19;19918;-80
2023/06/02 08:43:46;;;;;;;;;;;18.90;38.60;;;17.82;38.00;101539.50;12304648;19;19935;-83
2023/06/02 08:47:56;;;;;;;;;;;18.90;38.30;;;17.85;38.20;101554.28;12305651;19;19955;-82
2023/06/02 08:52:02;;;;;;;;;;;18.90;39.20;;;17.87;38.20;101542.63;12307057;19;19961;-82
2023/06/02 08:56:04;;;;;;;;;;;19.00;38.90;;;18.00;38.25;101558.44;12305035;19;19938;-82
2023/06/02 09:00:07;;;;;;;;;;;19.00;39.50;;;17.83;38.42;101509.47;12305804;19;19911;-83
2023/06/02 09:04:08;;;;;;;;;;;19.10;39.60;;;18.20;38.47;101545.53;12304707;19;19926;-82
2023/06/02 09:08:12;;;;;;;;;;;19.20;38.50;;;18.32;38.38;101547.28;12305698;19;20230;-83
2023/06/02 09:12:14;;;;;;;;;;;19.30;40.20;;;18.46;38.68;101547.09;12306662;19;19919;-82
2023/06/02 09:16:16;;;;;;;;;;;19.50;39.40;;;18.61;38.51;101552.19;12301580;19;19923;-82
2023/06/02 09:20:29;;;;;;;;;;;19.60;39.10;;;18.70;38.52;101559.41;12308400;19;20254;-84
2023/06/02 09:24:32;;;;;;;;;;;19.70;38.90;;;18.76;38.40;101572.22;12304142;19;19915;-83
2023/06/02 09:28:34;;;;;;;;;;;19.80;39.60;;;18.84;38.41;101569.81;12305572;19;19925;-83
2023/06/02 09:32:36;;;;;;;;;;;19.90;38.80;;;18.86;38.67;101567.06;12307512;19;19907;-82
2023/06/02 09:36:38;;;;;;;;;;;20.00;39.20;;;18.99;38.71;101578.41;12280818;19;19942;-82
2023/06/02 09:40:41;;;;;;;;;;;20.10;39.10;;;19.14;38.60;101582.50;12257555;19;20234;-80
2023/06/02 09:45:21;;;;;;;;;;;20.20;38.90;;;19.27;38.43;101582.38;12255939;19;19919;-82
2023/06/02 09:49:24;;;;;;;;;;;20.30;38.50;;;19.38;38.53;101576.25;12251061;19;19922;-82
2023/06/02 09:53:26;;;;;;;;;;;20.40;38.60;;;19.44;38.75;101573.97;12254774;19;19907;-81
2023/06/02 09:57:30;;;;;;;;;;;20.50;37.70;;;19.52;38.29;101588.38;12254724;19;19948;-82
2023/06/02 10:01:36;;;;;;;;;;;20.60;37.90;;;19.29;38.46;101546.03;12259190;19;19951;-83
2023/06/02 10:05:39;;;;;;;;;;;20.70;37.30;;;19.47;38.40;101580.81;12253394;19;19933;-82
2023/06/02 10:09:56;;;;;;;;;;;20.70;36.90;;;19.42;38.33;101594.44;12257388;19;19978;-82
2023/06/02 10:14:03;;;;;;;;;;;20.70;36.50;;;19.51;38.54;101597.31;12256602;19;19970;-82
2023/06/02 10:18:08;;;;;;;;;;;20.60;36.70;;;19.54;38.22;101602.38;12251928;19;19914;-83
2023/06/02 10:22:35;;;;;;;;;;;20.60;36.70;;;19.59;38.24;101602.84;12169644;19;19922;-83
2023/06/02 10:26:54;;;;;;;;;;;20.70;36.50;;;19.67;38.00;101592.50;12244932;19;20014;-82
2023/06/02 10:31:09;;;;;;;;;;;20.70;36.00;;;19.79;38.27;101598.63;12248780;19;20396;-83
2023/06/02 10:35:11;;;;;;;;;;;20.80;36.10;;;19.83;38.35;101590.31;12245785;19;19998;-84
2023/06/02 10:39:38;;;;;;;;;;;21.00;36.30;;;20.04;37.98;101600.16;12250204;19;19915;-84
2023/06/02 10:44:21;;;;;;;;;;;21.10;35.10;;;20.20;38.09;101603.25;12248663;19;19919;-84
2023/06/02 10:48:39;;;;;;;;;;;21.20;35.40;;;20.31;38.12;101599.72;12245137;19;19986;-83
2023/06/02 10:52:59;;;;;;;;;;;21.30;34.80;;;20.44;37.76;101603.03;12246681;19;19938;-81
2023/06/02 10:57:00;;;;;;;;;;;21.50;35.20;;;20.45;37.29;101590.59;12251147;19;19919;-82
2023/06/02 11:01:02;;;;;;;;;;;21.60;34.80;;;20.48;37.46;101575.25;12250386;19;19999;-83
2023/06/02 11:05:26;;;;;;;;;;;21.60;34.70;;;20.66;37.46;101599.47;12251637;19;19929;-82
2023/06/02 11:09:35;;;;;;;;;;;21.80;33.90;;;20.75;37.45;101596.00;12254158;19;19914;-84
2023/06/02 11:13:57;;;;;;;;;;;21.80;33.60;;;20.89;37.27;101602.81;12252533;19;19926;-85
2023/06/02 11:18:01;;;;;;;;;;;21.90;33.80;;;20.96;37.24;101588.03;12252275;19;19914;-84
2023/06/02 11:22:04;;;;;;;;;;;22.00;33.20;;;21.14;36.96;101590.06;12251357;19;20274;-84
2023/06/02 11:26:07;;;;;;;;;;;22.20;33.20;;;21.24;37.12;101577.69;12248574;19;20257;-83
2023/06/02 11:30:11;;;;;;;;;;;22.30;34.00;;;21.37;36.85;101582.78;12251737;19;19922;-84
2023/06/02 11:34:16;;;;;;;;;;;22.40;33.70;;;21.54;36.92;101591.97;12249704;19;19923;-84
2023/06/02 11:38:18;;;;;;;;;;;22.60;33.30;;;21.65;36.79;101591.84;12243309;19;20254;-83
2023/06/02 11:42:31;;;;;;;;;;;22.80;34.00;;;21.77;37.01;101587.28;12244909;19;19914;-83
2023/06/02 11:46:33;;;;;;;;;;;22.90;32.70;;;21.88;36.57;101587.16;12245472;19;19923;-82
2023/06/02 11:50:35;;;;;;;;;;;23.00;32.70;;;22.07;36.54;101592.50;12248512;19;20612;-83
2023/06/02 11:54:49;;;;;;;;;;;23.10;33.00;;;22.18;36.39;101594.22;12249073;19;19929;-84
2023/06/02 11:58:51;;;;;;;;;;;23.20;32.20;;;22.23;36.05;101586.66;12243631;19;19959;-84
2023/06/02 12:03:07;;;;;;;;;;;23.30;33.80;;;22.22;35.70;101581.47;12246292;19;19922;-84
2023/06/02 12:07:08;;;;;;;;;;;23.40;33.30;;;22.23;35.72;101586.66;12243525;19;20256;-84
2023/06/02 12:11:15;;;;;;;;;;;23.40;32.90;;;22.25;35.76;101595.34;12247801;19;19943;-84
2023/06/02 12:15:17;;;;;;;;;;;23.40;32.90;;;22.26;35.46;101597.03;12245964;19;19930;-82
2023/06/02 12:19:20;;;;;;;;;;;23.40;30.40;;;22.12;35.66;101567.31;12247398;19;19914;-82
2023/06/02 12:23:22;;;;;;;;;;;23.40;31.30;;;22.19;35.14;101574.59;12246818;19;19918;-82
2023/06/02 12:27:24;;;;;;;;;;;23.40;31.60;;;22.46;35.54;101602.34;12244200;19;19927;-85
2023/06/02 12:31:25;;;;;;;;;;;23.50;30.70;;;22.49;35.38;101586.94;12244773;19;19926;-85
2023/06/02 12:35:26;;;;;;;;;;;23.60;29.70;;;22.51;35.07;101590.28;12245310;19;19927;-84
2023/06/02 12:39:28;;;;;;;;;;;23.60;30.80;;;22.57;35.06;101588.03;12245461;19;19922;-84
2023/06/02 12:43:30;;;;;;;;;;;23.70;29.80;;;22.73;35.08;101596.28;12251271;19;19934;-85
2023/06/02 12:47:33;;;;;;;;;;;23.80;31.20;;;22.79;34.77;101609.06;12247492;19;20364;-83
2023/06/02 12:51:35;;;;;;;;;;;23.80;30.00;;;22.84;34.43;101598.78;12247499;19;19914;-85
2023/06/02 12:55:37;;;;;;;;;;;23.90;31.40;;;22.91;34.54;101607.91;12243908;19;20249;-85
2023/06/02 12:59:39;;;;;;;;;;;24.00;31.10;;;22.95;33.91;101619.97;12244749;19;19919;-86
2023/06/02 13:03:42;;;;;;;;;;;24.00;29.40;;;22.99;34.29;101609.03;12236269;19;19930;-84
2023/06/02 13:07:43;;;;;;;;;;;24.00;30.30;;;23.04;34.28;101604.13;12241280;19;19926;-84
2023/06/02 13:11:46;;;;;;;;;;;24.10;30.50;;;23.16;34.34;101609.09;12246714;19;19943;-84
2023/06/02 13:15:48;;;;;;;;;;;24.20;29.90;;;23.27;34.35;101618.75;12253342;19;20310;-83
2023/06/02 13:19:50;;;;;;;;;;;24.30;30.20;;;23.28;33.75;101593.81;12256887;19;19927;-85
2023/06/02 13:23:52;;;;;;;;;;;24.40;30.40;;;23.37;33.90;101618.72;12255999;19;19988;-85
2023/06/02 13:27:54;;;;;;;;;;;24.40;29.50;;;23.39;33.75;101617.59;12254853;19;19919;-85
2023/06/02 13:31:55;;;;;;;;;;;24.40;29.00;;;23.44;33.73;101619.84;12252922;19;19919;-84
2023/06/02 13:35:57;;;;;;;;;;;24.40;28.30;;;23.38;33.55;101615.91;12252526;19;19926;-84
2023/06/02 13:39:59;;;;;;;;;;;24.50;28.20;;;23.40;33.46;101626.44;12253139;19;19919;-83
2023/06/02 13:44:00;;;;;;;;;;;24.50;27.30;;;23.39;33.15;101620.25;12251825;19;19918;-83
2023/06/02 13:48:03;;;;;;;;;;;24.50;27.50;;;23.32;32.66;101636.97;12251676;19;19922;-84
2023/06/02 13:52:05;;;;;;;;;;;24.40;27.00;;;23.15;32.31;101620.75;12254950;19;19939;-85
2023/06/02 13:56:07;;;;;;;;;;;24.40;27.40;;;23.12;32.57;101617.56;12249237;19;19918;-84
2023/06/02 14:00:10;;;;;;;;;;;24.30;28.10;;;23.03;32.15;101603.25;12255819;19;20369;-83
2023/06/02 14:04:14;;;;;;;;;;;24.30;26.70;;;23.24;32.41;101634.22;12253163;19;19919;-84
2023/06/02 14:08:16;;;;;;;;;;;24.20;28.20;;;23.29;32.56;101642.59;12254733;19;19911;-84
2023/06/02 14:12:19;;;;;;;;;;;24.30;26.80;;;23.30;32.16;101647.78;12254326;19;19915;-84
2023/06/02 14:16:20;;;;;;;;;;;24.30;26.90;;;23.35;31.87;101637.53;12251093;19;19915;-84
2023/06/02 14:20:21;;;;;;;;;;;24.30;27.90;;;23.36;32.07;101633.88;12251606;19;20013;-85
2023/06/02 14:24:24;;;;;;;;;;;24.30;28.50;;;23.45;31.94;101626.00;12253495;19;19927;-86
2023/06/02 14:28:26;;;;;;;;;;;24.40;29.40;;;23.49;31.71;101636.19;12247098;19;20443;-84
2023/06/02 14:32:27;;;;;;;;;;;24.40;28.70;;;23.55;31.59;101648.13;12252624;19;19935;-83
2023/06/02 14:36:29;;;;;;;;;;;24.40;26.90;;;23.45;31.87;101640.16;12251174;19;19918;-83
2023/06/02 14:40:30;;;;;;;;;;;24.40;28.10;;;23.42;31.75;101637.78;12253698;19;20344;-84
2023/06/02 14:44:32;;;;;;;;;;;24.40;28.40;;;23.51;31.47;101646.72;12252526;19;19915;-84
2023/06/02 14:48:34;;;;;;;;;;;24.40;27.20;;;23.44;31.64;101643.81;12252805;19;20341;-84
2023/06/02 14:52:36;;;;;;;;;;;24.40;27.90;;;23.47;31.65;101643.53;12254127;19;19923;-82
2023/06/02 14:56:38;;;;;;;;;;;24.40;27.70;;;23.30;31.31;101610.47;12245061;19;19919;-84
2023/06/02 15:00:40;;;;;;;;;;;24.40;28.10;;;23.45;31.44;101636.66;12253593;19;19915;-84
2023/06/02 15:04:42;;;;;;;;;;;24.40;27.90;;;23.57;31.39;101652.34;12249348;19;19954;-84
2023/06/02 15:08:43;;;;;;;;;;;24.50;28.90;;;23.57;31.43;101647.00;12249869;19;19919;-83
2023/06/02 15:12:45;;;;;;;;;;;24.50;29.60;;;23.49;31.32;101624.69;12250670;19;20310;-83
2023/06/02 15:16:46;;;;;;;;;;;24.50;29.30;;;23.59;31.04;101644.16;12242698;19;19918;-83
2023/06/02 15:20:50;;;;;;;;;;;24.50;27.80;;;23.54;30.82;101646.44;12250721;19;19919;-83
2023/06/02 15:24:51;;;;;;;;;;;24.50;27.80;;;23.47;31.06;101648.03;12249278;19;20325;-84
2023/06/02 15:28:53;;;;;;;;;;;24.40;27.60;;;23.41;30.80;101660.94;12250807;19;19906;-84
2023/06/02 15:32:56;;;;;;;;;;;24.40;28.30;;;23.25;30.57;101647.41;12250457;19;19938;-84
2023/06/02 15:36:57;;;;;;;;;;;24.30;28.50;;;23.28;30.57;101662.25;12244856;19;19958;-83
2023/06/02 15:40:58;;;;;;;;;;;24.20;27.00;;;23.25;30.90;101652.72;12250020;19;19925;-84
2023/06/02 15:45:00;;;;;;;;;;;24.20;27.40;;;23.10;30.80;101654.16;12244488;19;20233;-85
2023/06/02 15:49:01;;;;;;;;;;;24.10;26.80;;;23.03;30.55;101655.72;12249388;19;19963;-84
2023/06/02 15:53:03;;;;;;;;;;;24.00;28.70;;;22.95;30.05;101667.91;12248892;19;19990;-84
2023/06/02 15:57:05;;;;;;;;;;;23.90;26.90;;;22.69;30.16;101630.34;12247052;19;19926;-84
2023/06/02 16:01:07;;;;;;;;;;;23.80;27.40;;;22.86;30.36;101663.41;12249827;19;19915;-84
2023/06/02 16:05:08;;;;;;;;;;;23.80;27.60;;;22.81;30.13;101649.69;12248286;19;20242;-85
2023/06/02 16:09:10;;;;;;;;;;;23.70;26.50;;;22.76;30.26;101654.59;12248715;19;19915;-84
2023/06/02 16:13:12;;;;;;;;;;;23.70;26.80;;;22.64;29.79;101659.22;12249235;19;19932;-85
2023/06/02 16:17:13;;;;;;;;;;;23.60;26.10;;;22.53;29.58;101662.88;12240980;19;19927;-84
2023/06/02 16:21:15;;;;;;;;;;;23.50;26.60;;;22.51;29.51;101664.81;12250408;19;20272;-85
2023/06/02 16:25:17;;;;;;;;;;;23.50;27.40;;;22.48;29.75;101667.78;12246706;19;19917;-84
2023/06/02 16:29:19;;;;;;;;;;;23.40;26.30;;;22.41;29.85;101666.63;12249149;19;20285;-84
2023/06/02 16:33:21;;;;;;;;;;;23.30;27.40;;;22.33;29.54;101677.13;12242547;19;19919;-85
2023/06/02 16:37:22;;;;;;;;;;;23.20;25.90;;;22.18;29.22;101668.72;12243551;19;19911;-84
2023/06/02 16:41:24;;;;;;;;;;;23.20;28.10;;;22.18;29.63;101681.16;12246613;19;19926;-84
2023/06/02 16:45:26;;;;;;;;;;;23.10;26.50;;;21.93;29.17;101661.19;12247077;19;19911;-84
2023/06/02 16:49:27;;;;;;;;;;;23.00;26.30;;;21.98;28.84;101694.41;12258532;19;19983;-84
2023/06/02 16:53:30;;;;;;;;;;;23.00;25.80;;;21.91;29.29;101693.25;12258623;19;19926;-84
2023/06/02 16:57:31;;;;;;;;;;;22.80;26.80;;;21.79;28.88;101691.66;12255001;19;19929;-84
2023/06/02 17:01:33;;;;;;;;;;;22.80;27.00;;;21.75;28.76;101709.72;12253222;19;19933;-85
2023/06/02 17:05:34;;;;;;;;;;;22.70;26.90;;;21.75;28.93;101715.03;12249697;19;19926;-85
2023/06/02 17:09:36;;;;;;;;;;;22.60;27.50;;;21.59;28.92;101699.56;12258830;19;19995;-84
2023/06/02 17:13:37;;;;;;;;;;;22.60;26.80;;;21.52;28.96;101711.72;12259182;19;20326;-84
2023/06/02 17:17:39;;;;;;;;;;;22.50;27.00;;;21.53;29.07;101726.69;12259126;19;19919;-83
2023/06/02 17:21:40;;;;;;;;;;;22.40;28.10;;;21.48;28.88;101720.09;12259212;19;19995;-84
2023/06/02 17:25:42;;;;;;;;;;;22.30;27.20;;;21.36;28.82;101724.56;12257409;19;19914;-83
2023/06/02 17:29:43;;;;;;;;;;;22.30;27.60;;;21.09;28.87;101688.78;12254720;19;20295;-84
2023/06/02 17:33:45;;;;;;;;;;;22.20;27.80;;;21.35;28.84;101734.38;12258706;19;19907;-83
2023/06/02 17:37:46;;;;;;;;;;;22.20;28.80;;;21.29;29.18;101734.91;12258293;19;19929;-83
2023/06/02 17:41:48;;;;;;;;;;;22.10;27.60;;;21.19;29.02;101742.78;12258822;19;19933;-85
2023/06/02 17:45:50;;;;;;;;;;;22.00;28.30;;;21.11;28.92;101742.59;12254089;19;20355;-83
2023/06/02 17:49:51;;;;;;;;;;;22.00;28.20;;;20.98;29.24;101737.47;12256481;19;20324;-83
2023/06/02 17:53:54;;;;;;;;;;;21.90;28.50;;;21.03;29.19;101750.34;12253891;19;19925;-83
2023/06/02 17:57:56;;;;;;;;;;;21.90;28.40;;;20.95;29.25;101740.41;12252918;19;19922;-83
2023/06/02 18:01:58;;;;;;;;;;;21.80;28.50;;;20.64;28.97;101704.06;12255040;19;19914;-83
2023/06/02 18:06:00;;;;;;;;;;;21.70;28.90;;;20.66;29.29;101737.47;12251641;19;19983;-82
2023/06/02 18:10:01;;;;;;;;;;;21.70;27.60;;;20.59;28.83;101746.91;12254895;19;19952;-84
2023/06/02 18:14:03;;;;;;;;;;;21.50;28.30;;;20.49;29.19;101757.38;12254905;19;19923;-83